Time;durP1;ratioP1;P1;durP2;ratioP2;P2;SDS_P1;SDS_P2;PMS_P1;PMS_P2;Temp;Humidity;BMP_temperature;BMP_pressure;BME280_temperature;BME280_humidity;BME280_pressure;Samples;Min_cycle;Max_cycle;Signal;HPM_P1;HPM_P2
2024/01/28 00:02:05;;;;;;;21.43;4.10;;;2.80;99.90;;;;;;5220167;28;20543;-54
2024/01/28 00:04:36;;;;;;;11.57;4.80;;;2.80;99.90;;;;;;5222478;28;20299;-53
2024/01/28 00:07:06;;;;;;;12.47;4.60;;;2.80;99.90;;;;;;5223018;28;21038;-52
2024/01/28 00:09:37;;;;;;;20.27;5.40;;;2.70;99.90;;;;;;5219632;28;20198;-50
2024/01/28 00:12:08;;;;;;;11.33;4.80;;;2.80;99.90;;;;;;5218567;28;20215;-52
2024/01/28 00:14:39;;;;;;;15.13;5.03;;;2.70;99.90;;;;;;5214476;28;20195;-51
2024/01/28 00:17:09;;;;;;;17.70;5.10;;;2.80;99.90;;;;;;5220693;28;20186;-51
2024/01/28 00:19:40;;;;;;;16.20;5.00;;;2.80;99.90;;;;;;5212247;28;20430;-51
2024/01/28 00:22:11;;;;;;;13.33;5.73;;;2.80;99.90;;;;;;5218373;28;20192;-51
2024/01/28 00:24:42;;;;;;;10.30;4.40;;;2.80;99.90;;;;;;5216098;28;20211;-52
2024/01/28 00:27:12;;;;;;;12.07;3.70;;;2.80;99.90;;;;;;5215537;28;20571;-52
2024/01/28 00:29:43;;;;;;;18.50;5.03;;;2.70;99.90;;;;;;5218812;28;20203;-52
2024/01/28 00:32:13;;;;;;;13.90;5.00;;;2.70;99.90;;;;;;5218061;28;20208;-50
2024/01/28 00:34:44;;;;;;;13.23;4.87;;;2.60;99.90;;;;;;5221357;28;20199;-51
2024/01/28 00:37:15;;;;;;;12.33;5.00;;;2.50;99.90;;;;;;5216314;28;20189;-54
2024/01/28 00:39:46;;;;;;;25.53;4.90;;;2.50;99.90;;;;;;5219913;28;20248;-52
2024/01/28 00:42:16;;;;;;;14.77;4.40;;;2.40;99.90;;;;;;5220414;28;20786;-52
2024/01/28 00:44:47;;;;;;;24.10;6.27;;;2.90;99.90;;;;;;5219137;28;20236;-50
2024/01/28 00:47:18;;;;;;;12.43;5.17;;;2.40;99.90;;;;;;5220805;28;20701;-52
2024/01/28 00:49:49;;;;;;;25.97;5.87;;;2.40;99.90;;;;;;5223664;28;20210;-51
2024/01/28 00:52:19;;;;;;;18.93;5.40;;;2.40;99.90;;;;;;5216264;28;20242;-51
2024/01/28 00:54:50;;;;;;;13.73;4.57;;;2.30;99.90;;;;;;5222247;28;20690;-52
2024/01/28 00:57:21;;;;;;;7.93;3.90;;;2.30;99.90;;;;;;5219841;28;20639;-51
2024/01/28 00:59:51;;;;;;;5.13;3.33;;;2.30;99.90;;;;;;5223094;28;20187;-50
2024/01/28 01:02:22;;;;;;;21.03;4.90;;;2.30;99.90;;;;;;5223623;28;20190;-52
2024/01/28 01:04:53;;;;;;;22.30;4.33;;;2.30;99.90;;;;;;5220204;28;20245;-50
2024/01/28 01:07:26;;;;;;;10.87;3.90;;;2.30;99.90;;;;;;5221840;28;20741;-52
2024/01/28 01:09:57;;;;;;;17.43;4.80;;;2.20;99.90;;;;;;5221757;28;20521;-51
2024/01/28 01:12:27;;;;;;;6.17;3.47;;;2.20;99.90;;;;;;5222880;28;20565;-50
2024/01/28 01:14:58;;;;;;;13.93;4.23;;;2.20;99.90;;;;;;5230408;28;20202;-50
2024/01/28 01:17:29;;;;;;;7.47;4.17;;;2.10;99.90;;;;;;5225270;28;20183;-51
2024/01/28 01:20:00;;;;;;;19.47;4.47;;;2.10;99.90;;;;;;5226615;28;21360;-52
2024/01/28 01:22:31;;;;;;;15.70;4.10;;;2.10;99.90;;;;;;5228278;28;20437;-51
2024/01/28 01:25:02;;;;;;;18.97;5.60;;;2.10;99.90;;;;;;5231345;28;20853;-51
2024/01/28 01:27:33;;;;;;;15.30;5.10;;;2.10;99.90;;;;;;5229735;28;20206;-51
2024/01/28 01:30:05;;;;;;;10.40;4.70;;;2.10;99.90;;;;;;5226823;28;20516;-50
2024/01/28 01:32:37;;;;;;;16.73;4.63;;;2.10;99.90;;;;;;5219522;28;20183;-50
2024/01/28 01:35:08;;;;;;;11.40;4.50;;;2.00;99.90;;;;;;5223227;28;20575;-51
2024/01/28 01:37:39;;;;;;;18.77;4.63;;;2.10;99.90;;;;;;5223927;28;20456;-51
2024/01/28 01:40:14;;;;;;;17.87;4.17;;;2.10;99.90;;;;;;5220142;28;20441;-51
2024/01/28 01:42:44;;;;;;;15.87;4.80;;;2.20;99.90;;;;;;5225959;28;20285;-51
2024/01/28 01:45:15;;;;;;;24.03;5.27;;;2.10;99.90;;;;;;5224561;28;20973;-51
2024/01/28 01:47:46;;;;;;;13.07;4.23;;;2.10;99.90;;;;;;5213425;28;20179;-52
2024/01/28 01:50:17;;;;;;;23.77;4.57;;;2.00;99.90;;;;;;5222061;28;20472;-50
2024/01/28 01:52:48;;;;;;;13.00;4.43;;;2.00;99.90;;;;;;5225478;28;20426;-51
2024/01/28 01:55:19;;;;;;;10.27;3.43;;;1.90;99.90;;;;;;5225956;28;20472;-51
2024/01/28 01:57:50;;;;;;;10.70;3.80;;;1.80;99.90;;;;;;5222663;28;20183;-52
2024/01/28 02:00:21;;;;;;;10.77;4.00;;;1.80;99.90;;;;;;5220785;28;20274;-51
2024/01/28 02:02:51;;;;;;;17.77;4.70;;;1.80;99.90;;;;;;5228315;28;20532;-51
2024/01/28 02:05:22;;;;;;;12.40;4.17;;;1.70;99.90;;;;;;5228226;28;20232;-52
2024/01/28 02:07:53;;;;;;;11.50;4.50;;;1.70;99.90;;;;;;5215136;28;20202;-51
2024/01/28 02:10:25;;;;;;;9.53;3.80;;;1.60;99.90;;;;;;5226072;28;20203;-53
2024/01/28 02:12:55;;;;;;;6.43;3.03;;;1.60;99.90;;;;;;5228775;28;20190;-52
2024/01/28 02:15:26;;;;;;;8.80;4.33;;;1.60;99.90;;;;;;5221186;28;20454;-52
2024/01/28 02:17:57;;;;;;;11.57;4.77;;;1.50;99.90;;;;;;5223728;28;20179;-51
2024/01/28 02:20:28;;;;;;;11.40;4.00;;;1.50;99.90;;;;;;5223779;28;20610;-51
2024/01/28 02:22:58;;;;;;;7.93;3.53;;;1.50;99.90;;;;;;5227527;28;20192;-51
2024/01/28 02:25:29;;;;;;;8.27;4.40;;;1.40;99.90;;;;;;5227610;28;20194;-51
2024/01/28 02:28:00;;;;;;;14.50;4.70;;;1.50;99.90;;;;;;5222253;28;20632;-51
2024/01/28 02:30:32;;;;;;;10.63;4.10;;;1.50;99.90;;;;;;5223938;28;20457;-52
2024/01/28 02:33:02;;;;;;;14.60;4.43;;;1.60;99.90;;;;;;5219566;28;20631;-51
2024/01/28 02:35:33;;;;;;;10.43;3.77;;;1.50;99.90;;;;;;5216241;28;20473;-51
2024/01/28 02:38:04;;;;;;;12.57;4.90;;;1.50;99.90;;;;;;5220529;28;20205;-51
2024/01/28 02:40:35;;;;;;;16.77;5.23;;;1.40;99.90;;;;;;5199426;28;20209;-52
2024/01/28 02:43:06;;;;;;;7.87;3.90;;;1.50;99.90;;;;;;5220652;28;20182;-50
2024/01/28 02:45:36;;;;;;;12.90;3.90;;;1.50;99.90;;;;;;5218597;28;21100;-49
2024/01/28 02:48:07;;;;;;;26.33;4.07;;;1.50;99.90;;;;;;5217779;28;20445;-51
2024/01/28 02:50:38;;;;;;;7.20;3.70;;;1.50;99.90;;;;;;5213503;28;20214;-50
2024/01/28 02:53:09;;;;;;;12.93;3.73;;;1.50;99.90;;;;;;5221533;28;20590;-50
2024/01/28 02:55:40;;;;;;;9.33;3.17;;;1.50;99.90;;;;;;5223230;28;20711;-50
2024/01/28 02:58:10;;;;;;;14.97;3.90;;;1.40;99.90;;;;;;5226080;28;20425;-51
2024/01/28 03:00:41;;;;;;;7.30;4.00;;;1.30;99.90;;;;;;5217621;28;20269;-51
2024/01/28 03:03:12;;;;;;;4.17;3.37;;;1.30;99.90;;;;;;5219080;28;20631;-51
2024/01/28 03:05:42;;;;;;;11.30;3.70;;;1.30;99.90;;;;;;5221110;28;20241;-52
2024/01/28 03:08:13;;;;;;;11.47;3.60;;;1.30;99.90;;;;;;5223833;28;20701;-51
2024/01/28 03:10:44;;;;;;;11.23;3.97;;;1.30;99.90;;;;;;5220724;28;21149;-51
2024/01/28 03:13:15;;;;;;;9.50;4.37;;;1.20;99.90;;;;;;5221212;28;20644;-51
2024/01/28 03:15:45;;;;;;;12.63;4.53;;;1.30;99.90;;;;;;5224375;28;20655;-50
2024/01/28 03:18:16;;;;;;;13.47;4.90;;;1.20;99.90;;;;;;5219388;28;20171;-50
2024/01/28 03:20:47;;;;;;;7.73;3.70;;;1.30;99.90;;;;;;5214450;28;20650;-51
2024/01/28 03:23:19;;;;;;;9.43;3.80;;;1.30;99.90;;;;;;5222284;28;20532;-51
2024/01/28 03:25:50;;;;;;;19.57;5.63;;;1.30;99.90;;;;;;5224344;28;20214;-52
2024/01/28 03:28:21;;;;;;;18.93;5.50;;;1.30;99.90;;;;;;5219743;28;20426;-52
2024/01/28 03:30:52;;;;;;;14.83;5.17;;;1.20;99.90;;;;;;5220339;28;20594;-51
2024/01/28 03:33:22;;;;;;;15.63;6.63;;;1.20;99.90;;;;;;5225946;28;20182;-50
2024/01/28 03:35:53;;;;;;;13.83;5.80;;;1.20;99.90;;;;;;5221717;28;20205;-51
2024/01/28 03:38:24;;;;;;;31.43;6.83;;;1.20;99.90;;;;;;5219594;28;20194;-51
2024/01/28 03:40:55;;;;;;;10.57;5.47;;;1.20;99.90;;;;;;5216609;28;20179;-51
2024/01/28 03:43:26;;;;;;;13.07;5.13;;;1.30;99.90;;;;;;5218316;28;20449;-50
2024/01/28 03:45:57;;;;;;;19.03;5.93;;;1.30;99.90;;;;;;5223578;28;20663;-50
2024/01/28 03:48:27;;;;;;;7.07;4.30;;;1.30;99.90;;;;;;5219707;28;20658;-51
2024/01/28 03:50:58;;;;;;;14.83;5.23;;;1.30;99.90;;;;;;5220160;28;20342;-51
2024/01/28 03:53:29;;;;;;;8.77;5.40;;;1.20;99.90;;;;;;5216768;28;20551;-51
2024/01/28 03:56:00;;;;;;;21.43;6.50;;;1.20;99.90;;;;;;5218139;28;20386;-51
2024/01/28 03:58:30;;;;;;;9.93;5.00;;;1.20;99.90;;;;;;5220178;28;20183;-51
2024/01/28 04:01:03;;;;;;;15.60;6.37;;;1.10;99.90;;;;;;5217488;28;20662;-51
2024/01/28 04:03:33;;;;;;;14.77;5.80;;;1.10;99.90;;;;;;5223726;28;20191;-51
2024/01/28 04:06:05;;;;;;;17.53;6.23;;;1.10;99.90;;;;;;5219025;28;20460;-51
2024/01/28 04:08:35;;;;;;;25.33;6.20;;;1.20;99.90;;;;;;5214507;28;20193;-51
2024/01/28 04:11:06;;;;;;;12.97;5.90;;;1.20;99.90;;;;;;5220345;28;20470;-50
2024/01/28 04:13:37;;;;;;;16.90;5.50;;;1.20;99.90;;;;;;5215528;28;20886;-51
2024/01/28 04:16:07;;;;;;;11.57;5.43;;;1.20;99.90;;;;;;5216769;28;21070;-50
2024/01/28 04:18:39;;;;;;;13.10;5.93;;;1.20;99.90;;;;;;5222205;28;20643;-51
2024/01/28 04:21:10;;;;;;;23.23;6.10;;;1.20;99.90;;;;;;5220212;28;20211;-53
2024/01/28 04:23:41;;;;;;;21.20;7.03;;;1.20;99.90;;;;;;5216055;28;20438;-53
2024/01/28 04:26:11;;;;;;;21.73;6.03;;;1.10;99.90;;;;;;5215813;28;20260;-51
2024/01/28 04:28:42;;;;;;;15.00;5.93;;;1.20;99.90;;;;;;5219869;28;20178;-50
2024/01/28 04:31:13;;;;;;;18.23;6.60;;;1.20;99.90;;;;;;5216585;28;20194;-51
2024/01/28 04:33:44;;;;;;;21.00;6.17;;;1.30;99.90;;;;;;5216676;28;20202;-50
2024/01/28 04:36:15;;;;;;;24.00;7.17;;;1.20;99.90;;;;;;5214388;28;20442;-51
2024/01/28 04:38:45;;;;;;;22.70;6.40;;;1.20;99.90;;;;;;5220577;28;20189;-52
2024/01/28 04:41:17;;;;;;;14.43;5.80;;;1.30;99.90;;;;;;5214670;28;20241;-51
2024/01/28 04:43:47;;;;;;;16.60;6.00;;;1.30;99.90;;;;;;5221750;28;20429;-52
2024/01/28 04:46:18;;;;;;;24.53;5.50;;;1.30;99.90;;;;;;5212050;28;20679;-53
2024/01/28 04:48:49;;;;;;;14.27;5.20;;;1.20;99.90;;;;;;5211628;28;20191;-51
2024/01/28 04:51:20;;;;;;;17.40;6.07;;;1.20;99.90;;;;;;5217500;28;20221;-51
2024/01/28 04:53:51;;;;;;;18.53;6.23;;;1.10;99.90;;;;;;5214747;28;20540;-50
2024/01/28 04:56:21;;;;;;;13.57;6.07;;;1.00;99.90;;;;;;5215041;28;20548;-51
2024/01/28 04:58:52;;;;;;;16.90;6.30;;;1.00;99.90;;;;;;5218320;28;20233;-50
2024/01/28 05:01:24;;;;;;;26.27;6.20;;;1.00;99.90;;;;;;5214288;28;20245;-50
2024/01/28 05:03:54;;;;;;;25.20;7.17;;;1.00;99.90;;;;;;5219304;28;20703;-50
2024/01/28 05:06:32;;;;;;;15.13;6.10;;;0.90;99.90;;;;;;5216213;28;20520;-50
2024/01/28 05:09:08;;;;;;;22.47;6.37;;;1.00;99.90;;;;;;5216594;28;20163;-51
2024/01/28 05:11:39;;;;;;;13.43;6.60;;;0.90;99.90;;;;;;5214529;28;20532;-50
2024/01/28 05:14:10;;;;;;;25.50;6.43;;;0.90;99.90;;;;;;5215161;28;20544;-49
2024/01/28 05:16:41;;;;;;;24.03;6.90;;;0.90;99.90;;;;;;5216981;28;20221;-50
2024/01/28 05:19:12;;;;;;;30.83;7.47;;;0.90;99.90;;;;;;5214002;28;20183;-49
2024/01/28 05:21:43;;;;;;;17.13;6.13;;;0.90;99.90;;;;;;5217751;28;20447;-49
2024/01/28 05:24:14;;;;;;;16.50;5.80;;;0.80;99.90;;;;;;5219673;28;20295;-49
2024/01/28 05:26:45;;;;;;;11.57;4.40;;;0.90;99.90;;;;;;5219214;28;20993;-48
2024/01/28 05:29:16;;;;;;;16.83;5.90;;;1.00;99.90;;;;;;5213585;28;20190;-54
2024/01/28 05:31:46;;;;;;;12.60;5.37;;;1.10;99.90;;;;;;5218158;28;20281;-50
2024/01/28 05:34:18;;;;;;;14.80;5.83;;;1.10;99.90;;;;;;5216167;28;20257;-52
2024/01/28 05:36:49;;;;;;;23.77;5.50;;;1.10;99.90;;;;;;5211639;28;20179;-51
2024/01/28 05:39:20;;;;;;;21.70;5.03;;;0.90;99.90;;;;;;5204695;28;21026;-50
2024/01/28 05:41:51;;;;;;;17.53;5.67;;;0.80;99.90;;;;;;5211948;28;20960;-50
2024/01/28 05:44:22;;;;;;;19.43;5.57;;;0.80;99.90;;;;;;5220663;28;20215;-48
2024/01/28 05:46:53;;;;;;;29.37;5.40;;;0.60;99.90;;;;;;5216077;28;20248;-49
2024/01/28 05:49:23;;;;;;;18.03;5.97;;;0.70;99.90;;;;;;5219773;28;20440;-48
2024/01/28 05:51:54;;;;;;;16.97;5.03;;;0.70;99.90;;;;;;5214836;28;20663;-50
2024/01/28 05:54:25;;;;;;;15.67;4.80;;;0.60;99.90;;;;;;5211291;28;20219;-49
2024/01/28 05:56:56;;;;;;;15.40;5.17;;;0.60;99.90;;;;;;5216704;28;20185;-48
2024/01/28 05:59:27;;;;;;;16.97;4.47;;;0.50;99.90;;;;;;5216337;28;20190;-49
2024/01/28 06:01:58;;;;;;;23.63;5.90;;;0.50;99.90;;;;;;5212473;28;20496;-50
2024/01/28 06:04:29;;;;;;;17.23;5.50;;;0.50;99.90;;;;;;5225994;28;20248;-52
2024/01/28 06:07:00;;;;;;;16.40;5.50;;;0.50;99.90;;;;;;5223641;28;20932;-50
2024/01/28 06:09:31;;;;;;;14.27;5.00;;;0.50;99.90;;;;;;5215477;28;20517;-49
2024/01/28 06:12:02;;;;;;;27.80;4.60;;;0.50;99.90;;;;;;5222531;28;20566;-49
2024/01/28 06:14:33;;;;;;;13.30;5.23;;;0.40;99.90;;;;;;5224421;28;20199;-49
2024/01/28 06:17:04;;;;;;;21.47;5.77;;;0.40;99.90;;;;;;5221578;28;20584;-50
2024/01/28 06:19:34;;;;;;;10.73;4.73;;;0.40;99.90;;;;;;5223056;28;20209;-50
2024/01/28 06:22:05;;;;;;;37.80;5.57;;;0.30;99.90;;;;;;5222815;28;20186;-49
2024/01/28 06:24:40;;;;;;;13.63;5.10;;;0.30;99.90;;;;;;5220449;28;21024;-49
2024/01/28 06:27:11;;;;;;;17.70;5.10;;;0.30;99.90;;;;;;5225179;28;20188;-50
2024/01/28 06:29:44;;;;;;;18.87;5.70;;;0.30;99.90;;;;;;5221145;28;20485;-49
2024/01/28 06:32:15;;;;;;;12.90;5.67;;;0.30;99.90;;;;;;5218435;28;20195;-51
2024/01/28 06:34:46;;;;;;;10.00;4.70;;;0.60;99.90;;;;;;5224809;28;20463;-48
2024/01/28 06:37:17;;;;;;;11.83;4.53;;;0.50;99.90;;;;;;5226956;28;20548;-51
2024/01/28 06:39:51;;;;;;;19.87;5.00;;;0.40;99.90;;;;;;5221953;28;20189;-50
2024/01/28 06:42:22;;;;;;;24.67;4.83;;;0.30;99.90;;;;;;5219747;28;20542;-50
2024/01/28 06:44:52;;;;;;;14.33;5.37;;;0.30;99.90;;;;;;5218291;28;20538;-50
2024/01/28 06:47:23;;;;;;;16.17;6.33;;;0.40;99.90;;;;;;5220907;28;20230;-50
2024/01/28 06:49:54;;;;;;;24.60;6.33;;;0.30;99.90;;;;;;5219820;28;20548;-51
2024/01/28 06:52:25;;;;;;;18.93;5.40;;;0.40;99.90;;;;;;5222518;28;20602;-50
2024/01/28 06:54:55;;;;;;;27.43;6.47;;;0.60;99.90;;;;;;5224135;28;20290;-51
2024/01/28 06:57:26;;;;;;;27.00;5.00;;;0.40;99.90;;;;;;5221743;28;20597;-52
2024/01/28 06:59:57;;;;;;;23.20;6.60;;;0.30;99.90;;;;;;5216834;28;20178;-51
2024/01/28 07:02:28;;;;;;;23.60;7.60;;;0.30;99.90;;;;;;5222267;28;20224;-52
2024/01/28 07:04:59;;;;;;;20.03;8.50;;;0.60;99.90;;;;;;5221052;28;20204;-50
2024/01/28 07:07:30;;;;;;;15.13;6.20;;;0.70;99.90;;;;;;5223338;28;20197;-53
2024/01/28 07:10:01;;;;;;;6.60;4.57;;;0.60;99.90;;;;;;5212436;28;20438;-49
2024/01/28 07:12:32;;;;;;;16.97;6.23;;;0.50;99.90;;;;;;5214278;28;20210;-50
2024/01/28 07:15:03;;;;;;;19.33;5.37;;;0.60;99.90;;;;;;5219627;28;20803;-48
2024/01/28 07:17:34;;;;;;;18.20;6.00;;;0.70;99.90;;;;;;5217639;28;20650;-50
2024/01/28 07:20:05;;;;;;;14.27;5.60;;;0.70;99.90;;;;;;5215996;28;20462;-50
2024/01/28 07:22:36;;;;;;;18.10;7.40;;;0.70;99.90;;;;;;5217420;28;20191;-50
2024/01/28 07:25:07;;;;;;;31.13;5.77;;;0.90;99.90;;;;;;5224867;28;20468;-49
2024/01/28 07:27:38;;;;;;;12.23;5.23;;;0.90;99.90;;;;;;5223001;28;20264;-54
2024/01/28 07:30:09;;;;;;;13.50;5.97;;;0.70;99.90;;;;;;5216774;28;20465;-51
2024/01/28 07:32:40;;;;;;;14.13;6.40;;;0.80;99.90;;;;;;5223462;28;20206;-49
2024/01/28 07:35:10;;;;;;;11.93;5.93;;;0.70;99.90;;;;;;5222667;28;20823;-49
2024/01/28 07:37:42;;;;;;;22.40;6.47;;;0.70;99.90;;;;;;5217312;28;20205;-49
2024/01/28 07:40:13;;;;;;;15.43;5.97;;;0.70;99.90;;;;;;5222212;28;20179;-52
2024/01/28 07:42:44;;;;;;;12.63;5.83;;;0.70;99.90;;;;;;5224704;28;20519;-51
2024/01/28 07:45:15;;;;;;;18.30;6.70;;;0.80;99.90;;;;;;5218618;28;20953;-50
2024/01/28 07:47:46;;;;;;;20.87;7.60;;;0.80;99.90;;;;;;5216544;28;20280;-50
2024/01/28 07:50:17;;;;;;;22.03;7.70;;;0.80;99.90;;;;;;5223710;28;20178;-52
2024/01/28 07:52:48;;;;;;;21.43;7.57;;;0.80;99.90;;;;;;5218578;28;20235;-56
2024/01/28 07:55:19;;;;;;;26.13;6.90;;;0.90;99.90;;;;;;5218727;28;20509;-52
2024/01/28 07:57:50;;;;;;;12.03;5.90;;;0.90;99.90;;;;;;5222055;28;20700;-51
2024/01/28 08:00:21;;;;;;;28.67;9.30;;;1.00;99.90;;;;;;5220298;28;20354;-50
2024/01/28 08:02:53;;;;;;;32.17;9.10;;;1.00;99.90;;;;;;5224290;28;20442;-49
2024/01/28 08:05:25;;;;;;;19.23;7.93;;;1.10;99.90;;;;;;5220551;28;20446;-50
2024/01/28 08:07:55;;;;;;;25.37;10.40;;;1.10;99.90;;;;;;5222735;28;20437;-52
2024/01/28 08:10:26;;;;;;;19.63;7.97;;;1.20;99.90;;;;;;5217188;28;20459;-52
2024/01/28 08:12:57;;;;;;;28.73;8.33;;;1.20;99.90;;;;;;5220882;28;20174;-52
2024/01/28 08:15:28;;;;;;;16.70;6.90;;;1.30;99.90;;;;;;5217075;28;20245;-52
2024/01/28 08:17:58;;;;;;;11.97;6.40;;;1.40;99.90;;;;;;5217409;28;20182;-50
2024/01/28 08:20:29;;;;;;;24.37;12.07;;;1.40;99.90;;;;;;5217951;28;20234;-50
2024/01/28 08:23:00;;;;;;;23.37;10.27;;;1.50;99.90;;;;;;5219894;28;20179;-52
2024/01/28 08:25:31;;;;;;;23.50;9.93;;;1.70;99.90;;;;;;5215200;28;20271;-51
2024/01/28 08:28:02;;;;;;;22.87;8.47;;;1.90;99.90;;;;;;5217912;28;20265;-51
2024/01/28 08:30:33;;;;;;;22.97;9.00;;;1.70;99.90;;;;;;5217111;28;20437;-50
2024/01/28 08:33:04;;;;;;;22.63;8.73;;;1.70;99.90;;;;;;5217023;28;20442;-48
2024/01/28 08:35:36;;;;;;;18.83;7.73;;;1.80;99.90;;;;;;5210216;28;20210;-50
2024/01/28 08:38:06;;;;;;;16.50;7.20;;;1.80;99.90;;;;;;5225293;28;20429;-50
2024/01/28 08:40:38;;;;;;;26.90;8.53;;;1.80;99.90;;;;;;5220521;28;20453;-51
2024/01/28 08:43:08;;;;;;;20.50;7.73;;;1.80;99.90;;;;;;5216773;28;20176;-51
2024/01/28 08:45:39;;;;;;;15.37;7.27;;;1.90;99.90;;;;;;5220029;28;20455;-50
2024/01/28 08:48:10;;;;;;;23.33;8.10;;;2.00;99.90;;;;;;5202264;28;20293;-49
2024/01/28 08:50:41;;;;;;;16.30;7.63;;;2.00;99.90;;;;;;5221960;28;20274;-52
2024/01/28 08:53:12;;;;;;;19.50;7.00;;;1.90;99.90;;;;;;5216660;28;20191;-51
2024/01/28 08:55:42;;;;;;;17.27;6.57;;;2.10;99.90;;;;;;5215356;28;20571;-50
2024/01/28 08:58:13;;;;;;;11.83;5.93;;;2.30;99.90;;;;;;5219988;28;20789;-50
2024/01/28 09:00:44;;;;;;;21.47;7.27;;;2.10;99.90;;;;;;5216802;28;20631;-51
2024/01/28 09:03:14;;;;;;;17.13;8.53;;;2.20;99.90;;;;;;5218181;28;20201;-51
2024/01/28 09:05:46;;;;;;;17.30;8.37;;;2.30;99.90;;;;;;5202162;28;20253;-50
2024/01/28 09:08:17;;;;;;;11.90;7.20;;;2.20;99.90;;;;;;5208410;28;20191;-54
2024/01/28 09:10:47;;;;;;;20.33;7.73;;;2.30;99.90;;;;;;5205002;28;20510;-54
2024/01/28 09:13:18;;;;;;;20.57;7.43;;;2.30;99.90;;;;;;5214403;28;20655;-50
2024/01/28 09:15:49;;;;;;;22.87;6.33;;;2.50;99.90;;;;;;5217470;28;20336;-50
2024/01/28 09:18:20;;;;;;;16.17;6.67;;;2.60;99.90;;;;;;5214671;28;20529;-51
2024/01/28 09:20:51;;;;;;;19.27;8.50;;;2.60;99.90;;;;;;5218863;28;20211;-50
2024/01/28 09:23:22;;;;;;;23.90;9.67;;;2.80;99.90;;;;;;5214420;28;20422;-50
2024/01/28 09:25:52;;;;;;;15.80;9.90;;;2.80;99.90;;;;;;5217465;28;20699;-49
2024/01/28 09:28:23;;;;;;;21.17;9.73;;;2.90;99.90;;;;;;5223333;28;20199;-52
2024/01/28 09:30:54;;;;;;;25.03;10.13;;;2.90;99.90;;;;;;5217896;28;20203;-50
2024/01/28 09:33:26;;;;;;;21.40;8.20;;;3.00;99.90;;;;;;5211122;28;20196;-50
2024/01/28 09:35:58;;;;;;;26.67;10.23;;;3.20;99.90;;;;;;5216491;28;20566;-50
2024/01/28 09:38:28;;;;;;;27.63;7.90;;;3.20;99.90;;;;;;5218773;28;20453;-51
2024/01/28 09:41:16;;;;;;;22.03;7.10;;;3.30;99.90;;;;;;5220675;28;20520;-52
2024/01/28 09:43:46;;;;;;;20.93;7.17;;;3.30;99.90;;;;;;5222027;28;20545;-51
2024/01/28 09:46:18;;;;;;;18.33;7.33;;;3.40;99.90;;;;;;5222799;28;20438;-51
2024/01/28 09:48:51;;;;;;;20.70;7.90;;;3.60;99.90;;;;;;5220528;28;20190;-52
2024/01/28 09:51:24;;;;;;;24.30;8.10;;;3.60;99.90;;;;;;5216151;28;20468;-56
2024/01/28 09:53:55;;;;;;;20.15;8.40;;;3.70;99.90;;;;;;5216557;28;20771;-51
2024/01/28 09:56:26;;;;;;;25.27;6.90;;;3.80;99.90;;;;;;5213027;28;20298;-50
2024/01/28 09:58:58;;;;;;;13.50;6.70;;;3.70;99.90;;;;;;5213684;28;20451;-51
2024/01/28 10:01:30;;;;;;;14.73;6.43;;;3.90;99.90;;;;;;5219384;28;20442;-51
2024/01/28 10:04:01;;;;;;;22.80;6.60;;;4.00;99.90;;;;;;5211745;28;20466;-54
2024/01/28 10:06:32;;;;;;;11.60;6.33;;;4.00;99.90;;;;;;5219446;28;20844;-51
2024/01/28 10:09:03;;;;;;;22.93;6.50;;;4.10;99.90;;;;;;5217813;28;20437;-51
2024/01/28 10:11:35;;;;;;;22.20;6.17;;;4.20;99.90;;;;;;5212937;28;20520;-51
2024/01/28 10:14:05;;;;;;;16.60;6.40;;;4.30;99.90;;;;;;5215756;28;20212;-51
2024/01/28 10:16:36;;;;;;;18.83;5.43;;;4.40;99.90;;;;;;5215034;28;20451;-52
2024/01/28 10:19:07;;;;;;;13.90;5.17;;;4.40;99.90;;;;;;5223340;28;20184;-50
2024/01/28 10:21:37;;;;;;;15.20;6.10;;;4.60;99.90;;;;;;5222636;28;20654;-50
2024/01/28 10:24:10;;;;;;;21.33;6.93;;;4.60;99.90;;;;;;5218598;28;20195;-51
2024/01/28 10:26:41;;;;;;;13.60;6.47;;;4.70;99.90;;;;;;5219502;28;20272;-49
2024/01/28 10:29:13;;;;;;;15.97;6.20;;;4.80;99.90;;;;;;5210808;28;20568;-50
2024/01/28 10:31:43;;;;;;;9.90;5.33;;;4.80;99.90;;;;;;5221425;28;20472;-50
2024/01/28 10:34:14;;;;;;;18.10;5.33;;;4.90;99.90;;;;;;5217214;28;20861;-50
2024/01/28 10:36:47;;;;;;;19.13;5.67;;;5.00;99.90;;;;;;5220089;28;20188;-52
2024/01/28 10:39:24;;;;;;;15.93;4.80;;;5.10;99.90;;;;;;5218404;28;20190;-50
2024/01/28 10:41:58;;;;;;;15.70;6.00;;;5.30;99.90;;;;;;5219517;28;20477;-55
2024/01/28 10:44:33;;;;;;;38.43;6.83;;;5.40;99.90;;;;;;5218115;28;20576;-51
2024/01/28 10:47:08;;;;;;;18.20;5.40;;;5.50;99.90;;;;;;5221311;28;20444;-50
2024/01/28 10:49:42;;;;;;;17.10;8.93;;;5.50;99.90;;;;;;5216056;28;20478;-49
2024/01/28 10:52:15;;;;;;;14.80;6.23;;;5.60;99.90;;;;;;5213720;28;20492;-50
2024/01/28 10:54:47;;;;;;;14.77;5.20;;;5.80;99.90;;;;;;5218157;28;20481;-51
2024/01/28 10:57:20;;;;;;;19.63;5.10;;;5.70;99.90;;;;;;5216460;28;20444;-51
2024/01/28 10:59:53;;;;;;;9.10;5.17;;;5.80;99.90;;;;;;5216631;28;20515;-53
2024/01/28 11:02:24;;;;;;;14.83;4.60;;;5.90;99.90;;;;;;5206304;28;20542;-53
2024/01/28 11:04:55;;;;;;;16.50;5.13;;;5.90;99.90;;;;;;5224288;28;20551;-51
2024/01/28 11:07:28;;;;;;;12.33;4.77;;;6.00;99.90;;;;;;5222602;28;20293;-51
2024/01/28 11:09:59;;;;;;;14.17;5.10;;;6.00;99.90;;;;;;5222579;28;20936;-52
2024/01/28 11:12:30;;;;;;;14.80;6.20;;;6.10;99.90;;;;;;5222094;28;20502;-52
2024/01/28 11:15:02;;;;;;;19.73;5.50;;;6.20;99.90;;;;;;5223469;28;20458;-52
2024/01/28 11:17:38;;;;;;;6.47;4.60;;;6.10;99.90;;;;;;5213893;28;20569;-51
2024/01/28 11:20:11;;;;;;;26.27;4.47;;;6.20;99.90;;;;;;5209944;28;20437;-52
2024/01/28 11:22:46;;;;;;;18.23;5.23;;;6.20;99.90;;;;;;5218631;28;20789;-53
2024/01/28 11:25:21;;;;;;;10.00;5.13;;;6.30;99.90;;;;;;5216451;28;20459;-52
2024/01/28 11:28:05;;;;;;;12.53;4.60;;;6.30;99.90;;;;;;5220755;28;20505;-53
2024/01/28 11:30:37;;;;;;;8.93;4.67;;;6.30;99.90;;;;;;5219757;28;21118;-53
2024/01/28 11:33:15;;;;;;;13.33;4.80;;;6.30;99.90;;;;;;5217990;28;20500;-53
2024/01/28 11:35:46;;;;;;;18.70;5.73;;;6.20;99.90;;;;;;5219821;28;20511;-53
2024/01/28 11:38:24;;;;;;;12.00;5.07;;;6.30;99.90;;;;;;5216469;28;20441;-53
2024/01/28 11:40:57;;;;;;;24.47;5.10;;;6.40;99.90;;;;;;5212181;28;20211;-53
2024/01/28 11:43:29;;;;;;;21.90;5.90;;;6.30;99.90;;;;;;5208965;28;20437;-52
2024/01/28 11:45:59;;;;;;;10.87;4.13;;;6.40;99.90;;;;;;5221616;28;20449;-53
2024/01/28 11:48:30;;;;;;;12.23;4.60;;;6.40;99.90;;;;;;5215756;28;20446;-53
2024/01/28 11:51:01;;;;;;;14.10;4.00;;;6.50;99.90;;;;;;5204462;28;20283;-53
2024/01/28 11:53:33;;;;;;;12.40;4.33;;;6.50;99.90;;;;;;5203142;28;20205;-52
2024/01/28 11:56:07;;;;;;;21.83;4.80;;;6.50;99.90;;;;;;5204169;28;20469;-53
2024/01/28 11:58:38;;;;;;;19.87;5.17;;;6.50;99.90;;;;;;5213005;28;20516;-51
2024/01/28 12:01:10;;;;;;;20.13;4.43;;;6.50;99.90;;;;;;5210265;28;20542;-51
2024/01/28 12:03:40;;;;;;;13.70;5.30;;;6.40;99.90;;;;;;5219848;28;20568;-52
2024/01/28 12:06:11;;;;;;;20.60;4.23;;;6.50;99.90;;;;;;5216838;28;20524;-52
2024/01/28 12:08:43;;;;;;;11.70;4.53;;;6.60;99.90;;;;;;5208256;28;25822;-51
2024/01/28 12:11:17;;;;;;;14.33;5.13;;;6.60;99.90;;;;;;5216087;28;20465;-52
2024/01/28 12:13:49;;;;;;;12.23;4.63;;;6.60;99.90;;;;;;5219576;28;20950;-53
2024/01/28 12:16:22;;;;;;;13.73;5.10;;;6.60;99.90;;;;;;5211357;28;20999;-51
2024/01/28 12:18:55;;;;;;;10.50;4.47;;;6.60;99.90;;;;;;5214048;28;21120;-52
2024/01/28 12:21:27;;;;;;;14.13;3.90;;;6.60;99.90;;;;;;5219703;28;20425;-51
2024/01/28 12:23:59;;;;;;;11.17;5.17;;;6.60;99.90;;;;;;5219623;28;20421;-51
2024/01/28 12:26:32;;;;;;;15.30;4.90;;;6.60;99.90;;;;;;5215243;28;20430;-52
2024/01/28 12:29:03;;;;;;;12.67;4.53;;;6.90;99.90;;;;;;5208616;28;20815;-52
2024/01/28 12:31:34;;;;;;;15.23;4.07;;;6.90;99.90;;;;;;5218966;28;20509;-53
2024/01/28 12:34:13;;;;;;;11.73;4.10;;;7.00;99.90;;;;;;5215550;28;20206;-53
2024/01/28 12:36:44;;;;;;;9.20;4.50;;;7.20;99.90;;;;;;5219300;28;21303;-52
2024/01/28 12:39:15;;;;;;;10.70;4.97;;;7.20;99.90;;;;;;5214263;28;20441;-52
2024/01/28 12:41:46;;;;;;;16.63;5.10;;;7.50;99.90;;;;;;5220060;28;20178;-51
2024/01/28 12:44:16;;;;;;;14.37;5.30;;;7.30;99.90;;;;;;5217292;28;20199;-52
2024/01/28 12:46:47;;;;;;;12.80;3.90;;;7.30;99.90;;;;;;5218326;28;20610;-52
2024/01/28 12:49:18;;;;;;;11.73;3.73;;;7.30;99.90;;;;;;5218221;28;20631;-51
2024/01/28 12:51:51;;;;;;;17.57;5.63;;;7.10;99.90;;;;;;5220942;28;20806;-52
2024/01/28 12:54:21;;;;;;;10.80;4.10;;;7.00;99.90;;;;;;5218303;28;20280;-53
2024/01/28 12:56:52;;;;;;;5.70;2.90;;;7.00;99.90;;;;;;5216415;28;20829;-52
2024/01/28 12:59:23;;;;;;;18.97;4.50;;;7.10;99.90;;;;;;5216436;28;20183;-52
2024/01/28 13:01:54;;;;;;;8.93;4.03;;;7.20;99.90;;;;;;5210644;28;20191;-53
2024/01/28 13:04:25;;;;;;;13.53;4.03;;;7.20;99.90;;;;;;5212228;28;20527;-53
2024/01/28 13:06:57;;;;;;;20.97;3.60;;;7.20;99.90;;;;;;5209863;28;20369;-51
2024/01/28 13:09:28;;;;;;;18.10;4.53;;;7.10;99.90;;;;;;5210845;28;20187;-53